sensor_id;sensor_type;location;lat;lon;timestamp;temperature;humidity
25138;DHT22;13112;50.986;4.354;2023-02-01T00:00:10;7.60;99.90
25138;DHT22;13112;50.986;4.354;2023-02-01T00:02:37;7.50;99.90
25138;DHT22;13112;50.986;4.354;2023-02-01T00:05:06;7.40;99.90
25138;DHT22;13112;50.986;4.354;2023-02-01T00:07:32;7.60;99.90
25138;DHT22;13112;50.986;4.354;2023-02-01T00:09:58;7.50;99.90
25138;DHT22;13112;50.986;4.354;2023-02-01T00:12:23;7.50;99.90
25138;DHT22;13112;50.986;4.354;2023-02-01T00:14:49;7.60;99.90
25138;DHT22;13112;50.986;4.354;2023-02-01T00:17:15;7.70;99.90
25138;DHT22;13112;50.986;4.354;2023-02-01T00:19:40;7.70;99.90
25138;DHT22;13112;50.986;4.354;2023-02-01T00:22:06;7.80;99.90
25138;DHT22;13112;50.986;4.354;2023-02-01T00:24:32;7.80;99.90
25138;DHT22;13112;50.986;4.354;2023-02-01T00:26:57;7.70;99.90
25138;DHT22;13112;50.986;4.354;2023-02-01T00:29:23;7.80;99.90
25138;DHT22;13112;50.986;4.354;2023-02-01T00:31:50;7.90;99.90
25138;DHT22;13112;50.986;4.354;2023-02-01T00:34:17;7.90;99.90
25138;DHT22;13112;50.986;4.354;2023-02-01T00:36:43;7.90;99.90
25138;DHT22;13112;50.986;4.354;2023-02-01T00:39:09;7.80;99.90
25138;DHT22;13112;50.986;4.354;2023-02-01T00:41:35;7.90;99.90
25138;DHT22;13112;50.986;4.354;2023-02-01T00:44:01;7.70;99.90
25138;DHT22;13112;50.986;4.354;2023-02-01T00:46:27;7.60;99.90
25138;DHT22;13112;50.986;4.354;2023-02-01T00:48:53;7.70;99.90
25138;DHT22;13112;50.986;4.354;2023-02-01T00:51:21;7.60;99.90
25138;DHT22;13112;50.986;4.354;2023-02-01T00:53:47;7.40;99.90
25138;DHT22;13112;50.986;4.354;2023-02-01T00:56:13;7.40;99.90
25138;DHT22;13112;50.986;4.354;2023-02-01T00:58:39;7.50;99.90
25138;DHT22;13112;50.986;4.354;2023-02-01T01:04:01;7.70;99.90
25138;DHT22;13112;50.986;4.354;2023-02-01T01:06:29;7.50;99.90
25138;DHT22;13112;50.986;4.354;2023-02-01T01:08:57;7.40;99.90
25138;DHT22;13112;50.986;4.354;2023-02-01T01:11:25;7.50;99.90
25138;DHT22;13112;50.986;4.354;2023-02-01T01:13:52;7.40;99.90
25138;DHT22;13112;50.986;4.354;2023-02-01T01:16:20;7.30;99.90
25138;DHT22;13112;50.986;4.354;2023-02-01T01:18:46;7.30;99.90
25138;DHT22;13112;50.986;4.354;2023-02-01T01:21:13;7.40;99.90
25138;DHT22;13112;50.986;4.354;2023-02-01T01:23:40;7.40;99.90
25138;DHT22;13112;50.986;4.354;2023-02-01T01:26:16;7.40;99.90
25138;DHT22;13112;50.986;4.354;2023-02-01T01:28:42;7.40;99.90
25138;DHT22;13112;50.986;4.354;2023-02-01T01:31:09;7.50;99.90
25138;DHT22;13112;50.986;4.354;2023-02-01T01:33:35;7.40;99.90
25138;DHT22;13112;50.986;4.354;2023-02-01T01:36:01;7.50;99.90
25138;DHT22;13112;50.986;4.354;2023-02-01T01:38:29;7.50;99.90
25138;DHT22;13112;50.986;4.354;2023-02-01T01:40:55;7.50;99.90
25138;DHT22;13112;50.986;4.354;2023-02-01T01:43:20;7.50;99.90
25138;DHT22;13112;50.986;4.354;2023-02-01T01:45:49;7.30;99.90
25138;DHT22;13112;50.986;4.354;2023-02-01T01:48:27;7.30;99.90
25138;DHT22;13112;50.986;4.354;2023-02-01T01:51:01;7.30;99.90
25138;DHT22;13112;50.986;4.354;2023-02-01T01:53:33;7.10;99.90
25138;DHT22;13112;50.986;4.354;2023-02-01T01:56:00;6.90;99.90
25138;DHT22;13112;50.986;4.354;2023-02-01T01:58:28;6.80;99.90
25138;DHT22;13112;50.986;4.354;2023-02-01T02:00:55;6.60;99.90
25138;DHT22;13112;50.986;4.354;2023-02-01T02:03:27;6.70;99.90
25138;DHT22;13112;50.986;4.354;2023-02-01T02:05:57;6.70;99.90
25138;DHT22;13112;50.986;4.354;2023-02-01T02:08:26;6.70;99.90
25138;DHT22;13112;50.986;4.354;2023-02-01T02:10:52;6.70;99.90
25138;DHT22;13112;50.986;4.354;2023-02-01T02:13:40;6.70;99.90
25138;DHT22;13112;50.986;4.354;2023-02-01T02:16:21;6.70;99.90
25138;DHT22;13112;50.986;4.354;2023-02-01T02:31:52;6.50;99.90
25138;DHT22;13112;50.986;4.354;2023-02-01T02:34:22;6.40;99.90
25138;DHT22;13112;50.986;4.354;2023-02-01T02:36:55;6.40;99.90
25138;DHT22;13112;50.986;4.354;2023-02-01T02:39:40;6.50;99.90
25138;DHT22;13112;50.986;4.354;2023-02-01T02:45:20;6.70;99.90
25138;DHT22;13112;50.986;4.354;2023-02-01T02:50:55;6.50;99.90
25138;DHT22;13112;50.986;4.354;2023-02-01T02:54:12;6.40;99.90
25138;DHT22;13112;50.986;4.354;2023-02-01T02:56:59;6.30;99.90
25138;DHT22;13112;50.986;4.354;2023-02-01T02:59:45;6.20;99.90
25138;DHT22;13112;50.986;4.354;2023-02-01T03:02:31;6.30;99.90
25138;DHT22;13112;50.986;4.354;2023-02-01T03:05:16;6.30;99.90
25138;DHT22;13112;50.986;4.354;2023-02-01T03:08:02;6.30;99.90
25138;DHT22;13112;50.986;4.354;2023-02-01T03:10:51;6.20;99.90
25138;DHT22;13112;50.986;4.354;2023-02-01T03:16:24;6.30;99.90
25138;DHT22;13112;50.986;4.354;2023-02-01T03:19:09;6.30;99.90
25138;DHT22;13112;50.986;4.354;2023-02-01T03:24:22;6.40;99.90
25138;DHT22;13112;50.986;4.354;2023-02-01T03:27:12;6.30;99.90
25138;DHT22;13112;50.986;4.354;2023-02-01T03:29:50;6.20;99.90
25138;DHT22;13112;50.986;4.354;2023-02-01T03:32:17;6.30;99.90
25138;DHT22;13112;50.986;4.354;2023-02-01T03:34:44;6.30;99.90
25138;DHT22;13112;50.986;4.354;2023-02-01T03:37:12;6.40;99.90
25138;DHT22;13112;50.986;4.354;2023-02-01T03:39:48;6.30;99.90
25138;DHT22;13112;50.986;4.354;2023-02-01T03:42:27;6.30;99.90
25138;DHT22;13112;50.986;4.354;2023-02-01T03:45:14;6.40;99.90
25138;DHT22;13112;50.986;4.354;2023-02-01T03:47:46;6.30;99.90
25138;DHT22;13112;50.986;4.354;2023-02-01T03:50:24;6.40;99.90
25138;DHT22;13112;50.986;4.354;2023-02-01T03:53:05;6.40;99.90
25138;DHT22;13112;50.986;4.354;2023-02-01T03:55:32;6.50;99.90
25138;DHT22;13112;50.986;4.354;2023-02-01T03:58:02;6.40;99.90
25138;DHT22;13112;50.986;4.354;2023-02-01T04:00:29;6.40;99.90
25138;DHT22;13112;50.986;4.354;2023-02-01T04:02:55;6.40;99.90
25138;DHT22;13112;50.986;4.354;2023-02-01T04:05:21;6.50;99.90
25138;DHT22;13112;50.986;4.354;2023-02-01T04:07:47;6.40;99.90
25138;DHT22;13112;50.986;4.354;2023-02-01T04:10:13;6.20;99.90
25138;DHT22;13112;50.986;4.354;2023-02-01T04:12:39;6.20;99.90
25138;DHT22;13112;50.986;4.354;2023-02-01T04:15:05;6.10;99.90
25138;DHT22;13112;50.986;4.354;2023-02-01T04:17:31;6.20;99.90
25138;DHT22;13112;50.986;4.354;2023-02-01T04:19:56;6.30;99.90
25138;DHT22;13112;50.986;4.354;2023-02-01T04:22:22;6.20;99.90
25138;DHT22;13112;50.986;4.354;2023-02-01T04:24:48;6.10;99.90
25138;DHT22;13112;50.986;4.354;2023-02-01T04:27:14;6.20;99.90
25138;DHT22;13112;50.986;4.354;2023-02-01T04:29:39;6.20;99.90
25138;DHT22;13112;50.986;4.354;2023-02-01T04:32:06;6.10;99.90
25138;DHT22;13112;50.986;4.354;2023-02-01T04:34:32;6.00;99.90
25138;DHT22;13112;50.986;4.354;2023-02-01T04:36:57;5.90;99.90
25138;DHT22;13112;50.986;4.354;2023-02-01T04:39:23;5.90;99.90
25138;DHT22;13112;50.986;4.354;2023-02-01T04:41:49;6.00;99.90
25138;DHT22;13112;50.986;4.354;2023-02-01T04:44:16;6.00;99.90
25138;DHT22;13112;50.986;4.354;2023-02-01T04:46:43;5.90;99.90
25138;DHT22;13112;50.986;4.354;2023-02-01T04:49:13;6.00;99.90
25138;DHT22;13112;50.986;4.354;2023-02-01T04:51:40;5.90;99.90
25138;DHT22;13112;50.986;4.354;2023-02-01T04:54:06;6.00;99.90
25138;DHT22;13112;50.986;4.354;2023-02-01T04:56:32;5.90;99.90
25138;DHT22;13112;50.986;4.354;2023-02-01T04:59:00;5.90;99.90
25138;DHT22;13112;50.986;4.354;2023-02-01T05:01:28;5.90;99.90
25138;DHT22;13112;50.986;4.354;2023-02-01T05:03:53;5.90;99.90
25138;DHT22;13112;50.986;4.354;2023-02-01T05:06:19;5.80;99.90
25138;DHT22;13112;50.986;4.354;2023-02-01T05:08:45;5.80;99.90
25138;DHT22;13112;50.986;4.354;2023-02-01T05:11:10;5.70;99.90
25138;DHT22;13112;50.986;4.354;2023-02-01T05:13:56;5.80;99.90
25138;DHT22;13112;50.986;4.354;2023-02-01T05:16:22;5.80;99.90
25138;DHT22;13112;50.986;4.354;2023-02-01T05:18:47;5.80;99.90
25138;DHT22;13112;50.986;4.354;2023-02-01T05:21:13;5.80;99.90
25138;DHT22;13112;50.986;4.354;2023-02-01T05:23:39;5.80;99.90
25138;DHT22;13112;50.986;4.354;2023-02-01T05:26:23;5.80;99.90
25138;DHT22;13112;50.986;4.354;2023-02-01T05:28:49;5.80;99.90
25138;DHT22;13112;50.986;4.354;2023-02-01T05:31:15;5.70;99.90
25138;DHT22;13112;50.986;4.354;2023-02-01T05:33:41;5.90;99.90
25138;DHT22;13112;50.986;4.354;2023-02-01T05:36:06;5.80;99.90
25138;DHT22;13112;50.986;4.354;2023-02-01T05:38:32;5.80;99.90
25138;DHT22;13112;50.986;4.354;2023-02-01T05:40:58;5.90;99.90
25138;DHT22;13112;50.986;4.354;2023-02-01T05:43:24;5.90;99.90
25138;DHT22;13112;50.986;4.354;2023-02-01T05:45:52;5.80;99.90
25138;DHT22;13112;50.986;4.354;2023-02-01T05:48:17;5.80;99.90
25138;DHT22;13112;50.986;4.354;2023-02-01T05:50:44;5.60;99.90
25138;DHT22;13112;50.986;4.354;2023-02-01T05:53:10;5.60;99.90
25138;DHT22;13112;50.986;4.354;2023-02-01T05:55:36;5.50;99.90
25138;DHT22;13112;50.986;4.354;2023-02-01T05:58:03;5.50;99.90
25138;DHT22;13112;50.986;4.354;2023-02-01T06:00:28;5.50;99.90
25138;DHT22;13112;50.986;4.354;2023-02-01T06:02:54;5.60;99.90
25138;DHT22;13112;50.986;4.354;2023-02-01T06:05:20;5.60;99.90
25138;DHT22;13112;50.986;4.354;2023-02-01T06:07:46;5.70;99.90
25138;DHT22;13112;50.986;4.354;2023-02-01T06:10:12;5.60;99.90
25138;DHT22;13112;50.986;4.354;2023-02-01T06:12:38;5.60;99.90
25138;DHT22;13112;50.986;4.354;2023-02-01T06:15:04;5.60;99.90
25138;DHT22;13112;50.986;4.354;2023-02-01T06:17:30;5.50;99.90
25138;DHT22;13112;50.986;4.354;2023-02-01T06:19:55;5.50;99.90
25138;DHT22;13112;50.986;4.354;2023-02-01T06:22:21;5.50;99.90
25138;DHT22;13112;50.986;4.354;2023-02-01T06:24:48;5.50;99.90
25138;DHT22;13112;50.986;4.354;2023-02-01T06:27:14;5.40;99.90
25138;DHT22;13112;50.986;4.354;2023-02-01T06:29:40;5.40;99.90
25138;DHT22;13112;50.986;4.354;2023-02-01T06:32:05;5.50;99.90
25138;DHT22;13112;50.986;4.354;2023-02-01T06:34:31;5.50;99.90
25138;DHT22;13112;50.986;4.354;2023-02-01T06:36:57;5.50;99.90
25138;DHT22;13112;50.986;4.354;2023-02-01T06:39:23;5.50;99.90
25138;DHT22;13112;50.986;4.354;2023-02-01T06:41:49;5.60;99.90
25138;DHT22;13112;50.986;4.354;2023-02-01T06:44:15;5.60;99.90
25138;DHT22;13112;50.986;4.354;2023-02-01T06:46:41;5.60;99.90
25138;DHT22;13112;50.986;4.354;2023-02-01T06:49:07;5.60;99.90
25138;DHT22;13112;50.986;4.354;2023-02-01T06:51:34;5.60;99.90
25138;DHT22;13112;50.986;4.354;2023-02-01T06:54:00;5.60;99.90
25138;DHT22;13112;50.986;4.354;2023-02-01T06:56:26;5.70;99.90
25138;DHT22;13112;50.986;4.354;2023-02-01T06:58:52;5.70;99.90
25138;DHT22;13112;50.986;4.354;2023-02-01T07:01:18;5.60;99.90
25138;DHT22;13112;50.986;4.354;2023-02-01T07:03:50;5.60;99.90
25138;DHT22;13112;50.986;4.354;2023-02-01T07:06:17;5.50;99.90
25138;DHT22;13112;50.986;4.354;2023-02-01T07:08:43;5.50;99.90
25138;DHT22;13112;50.986;4.354;2023-02-01T07:11:11;5.60;99.90
25138;DHT22;13112;50.986;4.354;2023-02-01T07:13:38;5.50;99.90
25138;DHT22;13112;50.986;4.354;2023-02-01T07:16:06;5.40;99.90
25138;DHT22;13112;50.986;4.354;2023-02-01T07:18:32;5.50;99.90
25138;DHT22;13112;50.986;4.354;2023-02-01T07:20:59;5.60;99.90
25138;DHT22;13112;50.986;4.354;2023-02-01T07:23:25;5.50;99.90
25138;DHT22;13112;50.986;4.354;2023-02-01T07:25:59;5.70;99.90
25138;DHT22;13112;50.986;4.354;2023-02-01T07:28:25;5.70;99.90
25138;DHT22;13112;50.986;4.354;2023-02-01T07:30:51;5.70;99.90
25138;DHT22;13112;50.986;4.354;2023-02-01T07:33:21;5.70;99.90
25138;DHT22;13112;50.986;4.354;2023-02-01T07:35:48;5.80;99.90
25138;DHT22;13112;50.986;4.354;2023-02-01T07:38:14;5.80;99.90
25138;DHT22;13112;50.986;4.354;2023-02-01T07:40:40;5.80;99.90
25138;DHT22;13112;50.986;4.354;2023-02-01T07:43:06;5.70;99.90
25138;DHT22;13112;50.986;4.354;2023-02-01T07:45:33;5.70;99.90
25138;DHT22;13112;50.986;4.354;2023-02-01T07:47:59;5.70;99.90
25138;DHT22;13112;50.986;4.354;2023-02-01T07:50:25;5.70;99.90
25138;DHT22;13112;50.986;4.354;2023-02-01T07:52:50;5.70;99.90
25138;DHT22;13112;50.986;4.354;2023-02-01T07:55:16;5.70;99.90
25138;DHT22;13112;50.986;4.354;2023-02-01T07:57:42;5.70;99.90
25138;DHT22;13112;50.986;4.354;2023-02-01T08:00:08;5.90;99.90
25138;DHT22;13112;50.986;4.354;2023-02-01T08:02:53;6.00;99.90
25138;DHT22;13112;50.986;4.354;2023-02-01T08:05:18;6.00;99.90
25138;DHT22;13112;50.986;4.354;2023-02-01T08:07:48;6.20;99.90
25138;DHT22;13112;50.986;4.354;2023-02-01T08:10:16;6.20;99.90
25138;DHT22;13112;50.986;4.354;2023-02-01T08:12:42;6.30;99.90
25138;DHT22;13112;50.986;4.354;2023-02-01T08:15:08;6.30;99.90
25138;DHT22;13112;50.986;4.354;2023-02-01T08:17:33;6.30;99.90
25138;DHT22;13112;50.986;4.354;2023-02-01T08:19:59;6.40;99.90
25138;DHT22;13112;50.986;4.354;2023-02-01T08:22:25;6.30;99.90
25138;DHT22;13112;50.986;4.354;2023-02-01T08:24:50;6.40;99.90
25138;DHT22;13112;50.986;4.354;2023-02-01T08:27:17;6.40;99.90
25138;DHT22;13112;50.986;4.354;2023-02-01T08:29:43;6.50;99.90
25138;DHT22;13112;50.986;4.354;2023-02-01T08:32:09;6.50;99.90
25138;DHT22;13112;50.986;4.354;2023-02-01T08:34:34;6.50;99.90
25138;DHT22;13112;50.986;4.354;2023-02-01T08:37:00;6.40;99.90
25138;DHT22;13112;50.986;4.354;2023-02-01T08:39:26;6.40;99.90
25138;DHT22;13112;50.986;4.354;2023-02-01T08:41:52;6.50;99.90
25138;DHT22;13112;50.986;4.354;2023-02-01T08:44:36;6.70;99.90
25138;DHT22;13112;50.986;4.354;2023-02-01T08:47:03;6.80;99.90
25138;DHT22;13112;50.986;4.354;2023-02-01T08:49:29;6.80;99.90
25138;DHT22;13112;50.986;4.354;2023-02-01T08:51:55;6.90;99.90
25138;DHT22;13112;50.986;4.354;2023-02-01T08:54:21;7.00;99.90
25138;DHT22;13112;50.986;4.354;2023-02-01T08:56:46;7.10;99.90
25138;DHT22;13112;50.986;4.354;2023-02-01T08:59:12;7.00;99.90
25138;DHT22;13112;50.986;4.354;2023-02-01T09:01:38;7.00;99.90
25138;DHT22;13112;50.986;4.354;2023-02-01T09:04:03;7.00;99.90
25138;DHT22;13112;50.986;4.354;2023-02-01T09:06:29;7.10;99.90
25138;DHT22;13112;50.986;4.354;2023-02-01T09:08:55;7.40;99.90
25138;DHT22;13112;50.986;4.354;2023-02-01T09:11:21;7.70;99.90
25138;DHT22;13112;50.986;4.354;2023-02-01T09:13:48;7.70;99.90
25138;DHT22;13112;50.986;4.354;2023-02-01T09:16:14;7.70;99.90
25138;DHT22;13112;50.986;4.354;2023-02-01T09:18:40;7.80;99.90
25138;DHT22;13112;50.986;4.354;2023-02-01T09:21:06;7.70;99.90
25138;DHT22;13112;50.986;4.354;2023-02-01T09:23:33;7.60;99.90
25138;DHT22;13112;50.986;4.354;2023-02-01T09:26:03;7.70;99.90
25138;DHT22;13112;50.986;4.354;2023-02-01T09:28:30;7.80;99.90
25138;DHT22;13112;50.986;4.354;2023-02-01T09:31:00;8.00;99.90
25138;DHT22;13112;50.986;4.354;2023-02-01T09:33:28;8.20;99.90
25138;DHT22;13112;50.986;4.354;2023-02-01T09:36:01;8.40;99.90
25138;DHT22;13112;50.986;4.354;2023-02-01T09:38:27;8.50;99.90
25138;DHT22;13112;50.986;4.354;2023-02-01T09:40:54;8.60;99.90
25138;DHT22;13112;50.986;4.354;2023-02-01T09:43:45;8.90;99.90
25138;DHT22;13112;50.986;4.354;2023-02-01T09:48:49;9.10;99.90
25138;DHT22;13112;50.986;4.354;2023-02-01T09:51:45;8.70;99.90
25138;DHT22;13112;50.986;4.354;2023-02-01T09:54:16;8.90;99.90
25138;DHT22;13112;50.986;4.354;2023-02-01T09:56:47;8.90;99.90
25138;DHT22;13112;50.986;4.354;2023-02-01T10:01:57;9.70;99.90
25138;DHT22;13112;50.986;4.354;2023-02-01T10:04:25;10.30;99.90
25138;DHT22;13112;50.986;4.354;2023-02-01T10:07:18;11.00;99.90
25138;DHT22;13112;50.986;4.354;2023-02-01T10:12:54;11.90;99.90
25138;DHT22;13112;50.986;4.354;2023-02-01T10:26:19;11.60;99.90
25138;DHT22;13112;50.986;4.354;2023-02-01T10:28:49;11.80;99.90
25138;DHT22;13112;50.986;4.354;2023-02-01T10:31:16;12.70;99.90
25138;DHT22;13112;50.986;4.354;2023-02-01T10:33:45;13.00;99.90
25138;DHT22;13112;50.986;4.354;2023-02-01T10:39:28;14.10;99.90
25138;DHT22;13112;50.986;4.354;2023-02-01T10:41:55;14.70;99.90
25138;DHT22;13112;50.986;4.354;2023-02-01T10:44:27;14.40;99.90
25138;DHT22;13112;50.986;4.354;2023-02-01T10:46:54;14.50;99.90
25138;DHT22;13112;50.986;4.354;2023-02-01T10:54:46;15.00;99.90
25138;DHT22;13112;50.986;4.354;2023-02-01T10:57:22;15.40;99.90
25138;DHT22;13112;50.986;4.354;2023-02-01T10:59:50;14.50;99.90
25138;DHT22;13112;50.986;4.354;2023-02-01T11:02:35;14.00;99.90
25138;DHT22;13112;50.986;4.354;2023-02-01T11:05:05;13.20;99.90
25138;DHT22;13112;50.986;4.354;2023-02-01T11:07:35;13.20;99.90
25138;DHT22;13112;50.986;4.354;2023-02-01T11:10:02;13.30;99.90
25138;DHT22;13112;50.986;4.354;2023-02-01T11:12:36;13.10;99.90
25138;DHT22;13112;50.986;4.354;2023-02-01T11:15:18;12.80;99.90
25138;DHT22;13112;50.986;4.354;2023-02-01T11:17:47;11.80;99.90
25138;DHT22;13112;50.986;4.354;2023-02-01T11:20:19;11.30;99.90
25138;DHT22;13112;50.986;4.354;2023-02-01T11:22:53;11.10;99.90
25138;DHT22;13112;50.986;4.354;2023-02-01T11:25:19;11.10;99.90
25138;DHT22;13112;50.986;4.354;2023-02-01T11:27:48;11.00;99.90
25138;DHT22;13112;50.986;4.354;2023-02-01T11:30:22;10.90;99.90
25138;DHT22;13112;50.986;4.354;2023-02-01T11:32:51;10.70;99.90
25138;DHT22;13112;50.986;4.354;2023-02-01T11:35:21;10.70;99.90
25138;DHT22;13112;50.986;4.354;2023-02-01T11:37:57;10.50;99.90
25138;DHT22;13112;50.986;4.354;2023-02-01T11:40:36;10.60;99.90
25138;DHT22;13112;50.986;4.354;2023-02-01T11:48:20;12.00;99.90
25138;DHT22;13112;50.986;4.354;2023-02-01T11:53:35;13.10;99.90
25138;DHT22;13112;50.986;4.354;2023-02-01T11:56:36;13.70;99.90
25138;DHT22;13112;50.986;4.354;2023-02-01T12:07:50;12.00;99.90
25138;DHT22;13112;50.986;4.354;2023-02-01T12:16:16;11.40;99.90
25138;DHT22;13112;50.986;4.354;2023-02-01T12:38:49;10.80;99.90
25138;DHT22;13112;50.986;4.354;2023-02-01T12:41:27;10.80;99.90
25138;DHT22;13112;50.986;4.354;2023-02-01T12:46:39;10.80;99.90
25138;DHT22;13112;50.986;4.354;2023-02-01T12:49:28;10.80;99.90
25138;DHT22;13112;50.986;4.354;2023-02-01T12:52:02;10.90;99.90
25138;DHT22;13112;50.986;4.354;2023-02-01T12:57:24;11.20;99.90
25138;DHT22;13112;50.986;4.354;2023-02-01T13:00:01;11.50;99.90
25138;DHT22;13112;50.986;4.354;2023-02-01T13:08:21;12.40;99.90
25138;DHT22;13112;50.986;4.354;2023-02-01T13:11:11;12.70;99.90
25138;DHT22;13112;50.986;4.354;2023-02-01T13:16:47;12.20;99.90
25138;DHT22;13112;50.986;4.354;2023-02-01T13:22:14;13.30;99.90
25138;DHT22;13112;50.986;4.354;2023-02-01T13:24:57;12.60;99.90
25138;DHT22;13112;50.986;4.354;2023-02-01T13:27:26;12.20;99.90
25138;DHT22;13112;50.986;4.354;2023-02-01T13:35:31;12.40;99.90
25138;DHT22;13112;50.986;4.354;2023-02-01T13:43:27;12.10;99.90
25138;DHT22;13112;50.986;4.354;2023-02-01T13:45:57;11.90;99.90
25138;DHT22;13112;50.986;4.354;2023-02-01T13:48:32;11.70;99.90
25138;DHT22;13112;50.986;4.354;2023-02-01T13:51:01;11.60;99.90
25138;DHT22;13112;50.986;4.354;2023-02-01T13:53:35;11.30;99.90
25138;DHT22;13112;50.986;4.354;2023-02-01T13:56:11;11.10;99.90
25138;DHT22;13112;50.986;4.354;2023-02-01T13:58:41;11.00;99.90
25138;DHT22;13112;50.986;4.354;2023-02-01T14:03:53;11.00;99.90
25138;DHT22;13112;50.986;4.354;2023-02-01T14:19:27;10.80;99.90
25138;DHT22;13112;50.986;4.354;2023-02-01T14:21:57;10.70;99.90
25138;DHT22;13112;50.986;4.354;2023-02-01T14:24:31;10.50;99.90
25138;DHT22;13112;50.986;4.354;2023-02-01T14:26:59;10.50;99.90
25138;DHT22;13112;50.986;4.354;2023-02-01T14:29:33;10.60;99.90
25138;DHT22;13112;50.986;4.354;2023-02-01T14:40:00;10.60;99.90
25138;DHT22;13112;50.986;4.354;2023-02-01T14:47:50;10.70;99.90
25138;DHT22;13112;50.986;4.354;2023-02-01T14:56:04;10.40;99.90
25138;DHT22;13112;50.986;4.354;2023-02-01T14:58:52;10.30;99.90
25138;DHT22;13112;50.986;4.354;2023-02-01T15:06:42;10.30;99.90
25138;DHT22;13112;50.986;4.354;2023-02-01T15:09:18;10.30;99.90
25138;DHT22;13112;50.986;4.354;2023-02-01T15:14:47;10.10;99.90
25138;DHT22;13112;50.986;4.354;2023-02-01T15:17:31;10.00;99.90
25138;DHT22;13112;50.986;4.354;2023-02-01T15:20:23;10.10;99.90
25138;DHT22;13112;50.986;4.354;2023-02-01T15:23:16;10.00;99.90
25138;DHT22;13112;50.986;4.354;2023-02-01T15:25:46;10.00;99.90
25138;DHT22;13112;50.986;4.354;2023-02-01T15:28:15;10.00;99.90
25138;DHT22;13112;50.986;4.354;2023-02-01T15:33:21;9.90;99.90
25138;DHT22;13112;50.986;4.354;2023-02-01T15:35:49;10.00;99.90
25138;DHT22;13112;50.986;4.354;2023-02-01T15:46:14;9.70;99.90
25138;DHT22;13112;50.986;4.354;2023-02-01T15:48:49;9.70;99.90
25138;DHT22;13112;50.986;4.354;2023-02-01T15:51:21;9.70;99.90
25138;DHT22;13112;50.986;4.354;2023-02-01T15:53:55;9.60;99.90
25138;DHT22;13112;50.986;4.354;2023-02-01T15:56:44;9.60;99.90
25138;DHT22;13112;50.986;4.354;2023-02-01T15:59:17;9.60;99.90
25138;DHT22;13112;50.986;4.354;2023-02-01T16:01:43;9.50;99.90
25138;DHT22;13112;50.986;4.354;2023-02-01T16:04:19;9.50;99.90
25138;DHT22;13112;50.986;4.354;2023-02-01T16:09:15;9.50;99.90
25138;DHT22;13112;50.986;4.354;2023-02-01T16:11:58;9.50;99.90
25138;DHT22;13112;50.986;4.354;2023-02-01T16:14:24;9.40;99.90
25138;DHT22;13112;50.986;4.354;2023-02-01T16:16:52;9.50;99.90
25138;DHT22;13112;50.986;4.354;2023-02-01T16:19:18;9.50;99.90
25138;DHT22;13112;50.986;4.354;2023-02-01T16:21:44;9.50;99.90
25138;DHT22;13112;50.986;4.354;2023-02-01T16:24:10;9.40;99.90
25138;DHT22;13112;50.986;4.354;2023-02-01T16:26:36;9.50;99.90
25138;DHT22;13112;50.986;4.354;2023-02-01T16:29:04;9.50;99.90
25138;DHT22;13112;50.986;4.354;2023-02-01T16:31:36;9.50;99.90
25138;DHT22;13112;50.986;4.354;2023-02-01T16:34:03;9.50;99.90
25138;DHT22;13112;50.986;4.354;2023-02-01T16:36:30;9.40;99.90
25138;DHT22;13112;50.986;4.354;2023-02-01T16:38:56;9.60;99.90
25138;DHT22;13112;50.986;4.354;2023-02-01T16:41:23;9.70;99.90
25138;DHT22;13112;50.986;4.354;2023-02-01T16:43:50;9.80;99.90
25138;DHT22;13112;50.986;4.354;2023-02-01T16:46:23;9.90;99.90
25138;DHT22;13112;50.986;4.354;2023-02-01T16:48:55;9.90;99.90
25138;DHT22;13112;50.986;4.354;2023-02-01T16:51:23;10.00;99.90
25138;DHT22;13112;50.986;4.354;2023-02-01T16:53:50;10.10;99.90
25138;DHT22;13112;50.986;4.354;2023-02-01T16:56:18;10.00;99.90
25138;DHT22;13112;50.986;4.354;2023-02-01T16:58:45;9.90;99.90
25138;DHT22;13112;50.986;4.354;2023-02-01T17:01:13;9.90;99.90
25138;DHT22;13112;50.986;4.354;2023-02-01T17:03:40;9.80;99.90
25138;DHT22;13112;50.986;4.354;2023-02-01T17:06:07;9.80;99.90
25138;DHT22;13112;50.986;4.354;2023-02-01T17:08:44;9.90;99.90
25138;DHT22;13112;50.986;4.354;2023-02-01T17:11:19;9.90;99.90
25138;DHT22;13112;50.986;4.354;2023-02-01T17:13:45;9.90;99.90
25138;DHT22;13112;50.986;4.354;2023-02-01T17:19:02;9.90;99.90
25138;DHT22;13112;50.986;4.354;2023-02-01T17:21:47;10.00;99.90
25138;DHT22;13112;50.986;4.354;2023-02-01T17:24:16;9.90;99.90
25138;DHT22;13112;50.986;4.354;2023-02-01T17:26:43;9.80;99.90
25138;DHT22;13112;50.986;4.354;2023-02-01T17:29:09;9.90;99.90
25138;DHT22;13112;50.986;4.354;2023-02-01T17:31:41;9.80;99.90
25138;DHT22;13112;50.986;4.354;2023-02-01T17:34:09;9.90;99.90
25138;DHT22;13112;50.986;4.354;2023-02-01T17:36:35;9.90;99.90
25138;DHT22;13112;50.986;4.354;2023-02-01T17:39:01;10.00;99.90
25138;DHT22;13112;50.986;4.354;2023-02-01T17:41:27;9.80;99.90
25138;DHT22;13112;50.986;4.354;2023-02-01T17:43:53;9.70;99.90
25138;DHT22;13112;50.986;4.354;2023-02-01T17:46:19;9.60;99.90
25138;DHT22;13112;50.986;4.354;2023-02-01T17:48:52;9.50;99.90
25138;DHT22;13112;50.986;4.354;2023-02-01T17:51:20;9.50;99.90
25138;DHT22;13112;50.986;4.354;2023-02-01T17:53:47;9.60;99.90
25138;DHT22;13112;50.986;4.354;2023-02-01T17:56:17;9.70;99.90
25138;DHT22;13112;50.986;4.354;2023-02-01T17:58:44;9.70;99.90
25138;DHT22;13112;50.986;4.354;2023-02-01T18:01:17;9.60;99.90
25138;DHT22;13112;50.986;4.354;2023-02-01T18:03:43;9.60;99.90
25138;DHT22;13112;50.986;4.354;2023-02-01T18:06:13;9.70;99.90
25138;DHT22;13112;50.986;4.354;2023-02-01T18:08:39;9.60;99.90
25138;DHT22;13112;50.986;4.354;2023-02-01T18:11:08;9.40;99.90
25138;DHT22;13112;50.986;4.354;2023-02-01T18:13:34;9.40;99.90
25138;DHT22;13112;50.986;4.354;2023-02-01T18:16:00;9.40;99.90
25138;DHT22;13112;50.986;4.354;2023-02-01T18:18:27;9.40;99.90
25138;DHT22;13112;50.986;4.354;2023-02-01T18:20:55;9.30;99.90
25138;DHT22;13112;50.986;4.354;2023-02-01T18:23:23;9.30;99.90
25138;DHT22;13112;50.986;4.354;2023-02-01T18:25:50;9.40;99.90
25138;DHT22;13112;50.986;4.354;2023-02-01T18:28:17;9.30;99.90
25138;DHT22;13112;50.986;4.354;2023-02-01T18:30:44;9.30;99.90
25138;DHT22;13112;50.986;4.354;2023-02-01T18:33:13;9.20;99.90
25138;DHT22;13112;50.986;4.354;2023-02-01T18:35:38;9.20;99.90
25138;DHT22;13112;50.986;4.354;2023-02-01T18:38:04;9.20;99.90
25138;DHT22;13112;50.986;4.354;2023-02-01T18:40:36;9.10;99.90
25138;DHT22;13112;50.986;4.354;2023-02-01T18:43:04;9.20;99.90
25138;DHT22;13112;50.986;4.354;2023-02-01T18:45:41;9.10;99.90
25138;DHT22;13112;50.986;4.354;2023-02-01T18:48:08;9.10;99.90
25138;DHT22;13112;50.986;4.354;2023-02-01T18:50:38;9.20;99.90
25138;DHT22;13112;50.986;4.354;2023-02-01T18:53:06;9.10;99.90
25138;DHT22;13112;50.986;4.354;2023-02-01T18:55:32;9.00;99.90
25138;DHT22;13112;50.986;4.354;2023-02-01T18:58:00;9.10;99.90
25138;DHT22;13112;50.986;4.354;2023-02-01T19:00:26;9.10;99.90
25138;DHT22;13112;50.986;4.354;2023-02-01T19:02:52;9.20;99.90